sensor_id;sensor_type;location;lat;lon;timestamp;pressure;altitude;pressure_sealevel;temperature;humidity
19457;BME280;9867;48.094;11.478;2023-03-13T00:00:35;94884.09;;;6.05;100.00
19457;BME280;9867;48.094;11.478;2023-03-13T00:03:02;94875.38;;;6.00;100.00
19457;BME280;9867;48.094;11.478;2023-03-13T00:05:28;94878.09;;;5.98;100.00
19457;BME280;9867;48.094;11.478;2023-03-13T00:07:55;94872.84;;;6.00;100.00
19457;BME280;9867;48.094;11.478;2023-03-13T00:10:21;94866.97;;;5.99;100.00
19457;BME280;9867;48.094;11.478;2023-03-13T00:12:47;94868.03;;;6.05;100.00
19457;BME280;9867;48.094;11.478;2023-03-13T00:15:14;94858.34;;;6.00;100.00
19457;BME280;9867;48.094;11.478;2023-03-13T00:17:41;94853.00;;;5.95;100.00
19457;BME280;9867;48.094;11.478;2023-03-13T00:20:09;94848.22;;;5.77;100.00
19457;BME280;9867;48.094;11.478;2023-03-13T00:22:35;94847.75;;;5.74;100.00
19457;BME280;9867;48.094;11.478;2023-03-13T00:25:02;94846.53;;;5.70;100.00
19457;BME280;9867;48.094;11.478;2023-03-13T00:27:31;94842.31;;;5.62;100.00
19457;BME280;9867;48.094;11.478;2023-03-13T00:29:59;94838.19;;;5.61;100.00
19457;BME280;9867;48.094;11.478;2023-03-13T00:32:26;94836.44;;;5.62;100.00
19457;BME280;9867;48.094;11.478;2023-03-13T00:34:53;94832.03;;;5.56;100.00
19457;BME280;9867;48.094;11.478;2023-03-13T00:37:19;94830.13;;;5.58;100.00
19457;BME280;9867;48.094;11.478;2023-03-13T00:39:46;94825.19;;;5.56;100.00
19457;BME280;9867;48.094;11.478;2023-03-13T00:42:13;94827.47;;;5.51;100.00
19457;BME280;9867;48.094;11.478;2023-03-13T00:44:39;94815.88;;;5.48;100.00
19457;BME280;9867;48.094;11.478;2023-03-13T00:47:06;94822.25;;;5.44;100.00
19457;BME280;9867;48.094;11.478;2023-03-13T00:49:32;94813.75;;;5.37;100.00
19457;BME280;9867;48.094;11.478;2023-03-13T00:51:59;94820.09;;;5.41;100.00
19457;BME280;9867;48.094;11.478;2023-03-13T00:54:26;94817.94;;;5.30;100.00
19457;BME280;9867;48.094;11.478;2023-03-13T00:56:52;94814.31;;;5.25;100.00
19457;BME280;9867;48.094;11.478;2023-03-13T00:59:19;94810.13;;;5.17;100.00
19457;BME280;9867;48.094;11.478;2023-03-13T01:01:46;94811.41;;;5.13;100.00
19457;BME280;9867;48.094;11.478;2023-03-13T01:04:13;94811.59;;;5.11;100.00
19457;BME280;9867;48.094;11.478;2023-03-13T01:06:40;94808.75;;;5.06;100.00
19457;BME280;9867;48.094;11.478;2023-03-13T01:09:10;94805.31;;;4.99;100.00
19457;BME280;9867;48.094;11.478;2023-03-13T01:11:38;94796.28;;;4.97;100.00
19457;BME280;9867;48.094;11.478;2023-03-13T01:14:07;94792.19;;;4.96;100.00
19457;BME280;9867;48.094;11.478;2023-03-13T01:16:35;94780.63;;;4.85;100.00
19457;BME280;9867;48.094;11.478;2023-03-13T01:19:04;94785.06;;;4.91;100.00
19457;BME280;9867;48.094;11.478;2023-03-13T01:21:31;94793.47;;;4.92;100.00
19457;BME280;9867;48.094;11.478;2023-03-13T01:23:57;94776.69;;;4.83;100.00
19457;BME280;9867;48.094;11.478;2023-03-13T01:26:25;94779.22;;;4.83;100.00
19457;BME280;9867;48.094;11.478;2023-03-13T01:28:53;94780.53;;;4.78;100.00
19457;BME280;9867;48.094;11.478;2023-03-13T01:31:21;94771.47;;;4.76;100.00
19457;BME280;9867;48.094;11.478;2023-03-13T01:33:49;94776.06;;;4.80;100.00
19457;BME280;9867;48.094;11.478;2023-03-13T01:36:16;94771.81;;;4.73;100.00
19457;BME280;9867;48.094;11.478;2023-03-13T01:38:47;94766.19;;;4.63;100.00
19457;BME280;9867;48.094;11.478;2023-03-13T01:41:13;94763.81;;;4.61;100.00
19457;BME280;9867;48.094;11.478;2023-03-13T01:43:43;94768.41;;;4.66;100.00
19457;BME280;9867;48.094;11.478;2023-03-13T01:46:12;94767.66;;;4.57;100.00
19457;BME280;9867;48.094;11.478;2023-03-13T01:49:04;94761.94;;;4.55;100.00
19457;BME280;9867;48.094;11.478;2023-03-13T01:51:39;94761.94;;;4.55;100.00
19457;BME280;9867;48.094;11.478;2023-03-13T01:54:09;94762.56;;;4.57;100.00
19457;BME280;9867;48.094;11.478;2023-03-13T01:56:40;94765.69;;;4.67;100.00
19457;BME280;9867;48.094;11.478;2023-03-13T01:59:11;94749.81;;;4.65;100.00
19457;BME280;9867;48.094;11.478;2023-03-13T02:01:40;94756.69;;;4.57;100.00
19457;BME280;9867;48.094;11.478;2023-03-13T02:04:10;94751.06;;;4.47;100.00
19457;BME280;9867;48.094;11.478;2023-03-13T02:06:40;94745.91;;;4.55;100.00
19457;BME280;9867;48.094;11.478;2023-03-13T02:09:11;94741.16;;;4.52;100.00
19457;BME280;9867;48.094;11.478;2023-03-13T02:11:46;94734.78;;;4.56;100.00
19457;BME280;9867;48.094;11.478;2023-03-13T02:14:15;94738.59;;;4.60;100.00
19457;BME280;9867;48.094;11.478;2023-03-13T02:16:42;94737.16;;;4.57;100.00
19457;BME280;9867;48.094;11.478;2023-03-13T02:19:16;94736.84;;;4.60;100.00
19457;BME280;9867;48.094;11.478;2023-03-13T02:21:48;94735.91;;;4.53;100.00
19457;BME280;9867;48.094;11.478;2023-03-13T02:24:22;94738.28;;;4.55;100.00
19457;BME280;9867;48.094;11.478;2023-03-13T02:26:54;94730.56;;;4.48;100.00
19457;BME280;9867;48.094;11.478;2023-03-13T02:29:20;94743.81;;;4.58;100.00
19457;BME280;9867;48.094;11.478;2023-03-13T02:31:47;94746.25;;;4.52;100.00
19457;BME280;9867;48.094;11.478;2023-03-13T02:34:17;94754.03;;;4.50;100.00
19457;BME280;9867;48.094;11.478;2023-03-13T02:36:46;94746.25;;;4.52;100.00
19457;BME280;9867;48.094;11.478;2023-03-13T02:39:15;94754.22;;;4.49;100.00
19457;BME280;9867;48.094;11.478;2023-03-13T02:41:44;94758.16;;;4.51;100.00
19457;BME280;9867;48.094;11.478;2023-03-13T02:44:12;94758.84;;;4.45;100.00
19457;BME280;9867;48.094;11.478;2023-03-13T02:46:46;94753.78;;;4.45;100.00
19457;BME280;9867;48.094;11.478;2023-03-13T02:49:22;94754.59;;;4.37;100.00
19457;BME280;9867;48.094;11.478;2023-03-13T02:51:51;94755.09;;;4.33;100.00
19457;BME280;9867;48.094;11.478;2023-03-13T02:54:21;94764.31;;;4.26;100.00
19457;BME280;9867;48.094;11.478;2023-03-13T02:56:51;94762.25;;;4.29;100.00
19457;BME280;9867;48.094;11.478;2023-03-13T02:59:20;94759.53;;;4.31;100.00
19457;BME280;9867;48.094;11.478;2023-03-13T03:01:47;94757.47;;;4.34;100.00
19457;BME280;9867;48.094;11.478;2023-03-13T03:04:18;94746.97;;;4.37;100.00
19457;BME280;9867;48.094;11.478;2023-03-13T03:06:52;94750.63;;;4.35;100.00
19457;BME280;9867;48.094;11.478;2023-03-13T03:09:19;94754.94;;;4.34;100.00
19457;BME280;9867;48.094;11.478;2023-03-13T03:11:46;94751.25;;;4.37;100.00
19457;BME280;9867;48.094;11.478;2023-03-13T03:14:14;94752.03;;;4.45;100.00
19457;BME280;9867;48.094;11.478;2023-03-13T03:16:44;94744.91;;;4.41;100.00
19457;BME280;9867;48.094;11.478;2023-03-13T03:19:11;94751.31;;;4.52;100.00
19457;BME280;9867;48.094;11.478;2023-03-13T03:21:38;94750.94;;;4.63;100.00
19457;BME280;9867;48.094;11.478;2023-03-13T03:24:05;94758.22;;;4.66;100.00
19457;BME280;9867;48.094;11.478;2023-03-13T03:26:31;94755.25;;;4.62;100.00
19457;BME280;9867;48.094;11.478;2023-03-13T03:28:58;94762.53;;;4.65;100.00
19457;BME280;9867;48.094;11.478;2023-03-13T03:31:25;94753.50;;;4.63;100.00
19457;BME280;9867;48.094;11.478;2023-03-13T03:33:52;94754.56;;;4.68;100.00
19457;BME280;9867;48.094;11.478;2023-03-13T03:36:20;94761.31;;;4.76;100.00
19457;BME280;9867;48.094;11.478;2023-03-13T03:38:48;94758.00;;;4.75;100.00
19457;BME280;9867;48.094;11.478;2023-03-13T03:41:17;94752.03;;;4.68;100.00
19457;BME280;9867;48.094;11.478;2023-03-13T03:43:45;94757.78;;;4.62;100.00
19457;BME280;9867;48.094;11.478;2023-03-13T03:46:14;94749.25;;;4.55;100.00
19457;BME280;9867;48.094;11.478;2023-03-13T03:48:42;94748.75;;;4.60;100.00
19457;BME280;9867;48.094;11.478;2023-03-13T03:51:10;94755.53;;;4.67;100.00
19457;BME280;9867;48.094;11.478;2023-03-13T03:53:39;94746.88;;;4.76;100.00
19457;BME280;9867;48.094;11.478;2023-03-13T03:56:06;94750.19;;;4.77;100.00
19457;BME280;9867;48.094;11.478;2023-03-13T03:58:35;94741.56;;;4.86;100.00
19457;BME280;9867;48.094;11.478;2023-03-13T04:01:31;94737.22;;;4.95;100.00
19457;BME280;9867;48.094;11.478;2023-03-13T04:03:57;94738.22;;;4.86;100.00
19457;BME280;9867;48.094;11.478;2023-03-13T04:06:24;94725.88;;;4.83;100.00
19457;BME280;9867;48.094;11.478;2023-03-13T04:08:51;94730.16;;;4.82;100.00
19457;BME280;9867;48.094;11.478;2023-03-13T04:11:21;94725.69;;;4.84;100.00
19457;BME280;9867;48.094;11.478;2023-03-13T04:13:51;94722.66;;;4.89;100.00
19457;BME280;9867;48.094;11.478;2023-03-13T04:16:18;94714.50;;;4.93;100.00
19457;BME280;9867;48.094;11.478;2023-03-13T04:18:46;94710.72;;;4.89;100.00
19457;BME280;9867;48.094;11.478;2023-03-13T04:21:13;94705.19;;;4.86;100.00
19457;BME280;9867;48.094;11.478;2023-03-13T04:23:44;94705.56;;;4.97;100.00
19457;BME280;9867;48.094;11.478;2023-03-13T04:26:12;94700.06;;;4.94;100.00
19457;BME280;9867;48.094;11.478;2023-03-13T04:28:40;94698.72;;;4.98;100.00
19457;BME280;9867;48.094;11.478;2023-03-13T04:31:08;94686.91;;;4.90;100.00
19457;BME280;9867;48.094;11.478;2023-03-13T04:33:53;94682.28;;;4.94;100.00
19457;BME280;9867;48.094;11.478;2023-03-13T04:36:31;94678.84;;;5.01;100.00
19457;BME280;9867;48.094;11.478;2023-03-13T04:39:27;94678.84;;;5.01;100.00
19457;BME280;9867;48.094;11.478;2023-03-13T04:42:12;94678.78;;;5.09;100.00
19457;BME280;9867;48.094;11.478;2023-03-13T04:45:01;94668.25;;;5.27;100.00
19457;BME280;9867;48.094;11.478;2023-03-13T04:47:53;94658.53;;;5.31;100.00
19457;BME280;9867;48.094;11.478;2023-03-13T04:50:39;94662.09;;;5.22;100.00
19457;BME280;9867;48.094;11.478;2023-03-13T04:53:26;94668.16;;;5.21;100.00
19457;BME280;9867;48.094;11.478;2023-03-13T04:56:02;94650.91;;;5.31;100.00
19457;BME280;9867;48.094;11.478;2023-03-13T04:58:49;94648.97;;;5.33;100.00
19457;BME280;9867;48.094;11.478;2023-03-13T05:01:44;94644.06;;;5.31;100.00
19457;BME280;9867;48.094;11.478;2023-03-13T05:04:17;94645.03;;;5.30;100.00
19457;BME280;9867;48.094;11.478;2023-03-13T05:07:03;94642.13;;;5.33;100.00
19457;BME280;9867;48.094;11.478;2023-03-13T05:10:09;94643.38;;;5.37;100.00
19457;BME280;9867;48.094;11.478;2023-03-13T05:12:46;94646.34;;;5.41;100.00
19457;BME280;9867;48.094;11.478;2023-03-13T05:15:35;94632.22;;;5.38;100.00
19457;BME280;9867;48.094;11.478;2023-03-13T05:18:31;94640.63;;;5.54;100.00
19457;BME280;9867;48.094;11.478;2023-03-13T05:21:09;94634.31;;;5.49;100.00
19457;BME280;9867;48.094;11.478;2023-03-13T05:23:51;94623.44;;;5.56;100.00
19457;BME280;9867;48.094;11.478;2023-03-13T05:26:31;94632.16;;;5.68;100.00
19457;BME280;9867;48.094;11.478;2023-03-13T05:29:09;94630.50;;;5.75;100.00
19457;BME280;9867;48.094;11.478;2023-03-13T05:32:14;94625.84;;;5.78;100.00
19457;BME280;9867;48.094;11.478;2023-03-13T05:35:19;94620.13;;;5.76;100.00
19457;BME280;9867;48.094;11.478;2023-03-13T05:38:04;94616.63;;;5.77;100.00
19457;BME280;9867;48.094;11.478;2023-03-13T05:40:53;94602.94;;;5.78;100.00
19457;BME280;9867;48.094;11.478;2023-03-13T05:43:40;94602.41;;;5.83;100.00
19457;BME280;9867;48.094;11.478;2023-03-13T05:46:18;94603.97;;;5.84;100.00
19457;BME280;9867;48.094;11.478;2023-03-13T05:49:04;94602.13;;;5.93;100.00
19457;BME280;9867;48.094;11.478;2023-03-13T05:51:42;94608.00;;;5.93;100.00
19457;BME280;9867;48.094;11.478;2023-03-13T05:54:25;94623.41;;;6.06;100.00
19457;BME280;9867;48.094;11.478;2023-03-13T05:57:20;94604.63;;;6.07;100.00
19457;BME280;9867;48.094;11.478;2023-03-13T06:00:25;94608.06;;;6.21;100.00
19457;BME280;9867;48.094;11.478;2023-03-13T06:03:10;94591.19;;;6.41;100.00
19457;BME280;9867;48.094;11.478;2023-03-13T06:05:43;94591.72;;;6.58;100.00
19457;BME280;9867;48.094;11.478;2023-03-13T06:08:28;94588.03;;;6.95;100.00
19457;BME280;9867;48.094;11.478;2023-03-13T06:10:58;94584.25;;;7.19;100.00
19457;BME280;9867;48.094;11.478;2023-03-13T06:13:25;94577.84;;;7.36;100.00
19457;BME280;9867;48.094;11.478;2023-03-13T06:15:54;94561.38;;;7.39;100.00
19457;BME280;9867;48.094;11.478;2023-03-13T06:18:38;94567.75;;;7.69;100.00
19457;BME280;9867;48.094;11.478;2023-03-13T06:21:04;94580.94;;;7.79;100.00
19457;BME280;9867;48.094;11.478;2023-03-13T06:23:31;94578.63;;;7.98;100.00
19457;BME280;9867;48.094;11.478;2023-03-13T06:25:59;94585.72;;;8.02;100.00
19457;BME280;9867;48.094;11.478;2023-03-13T06:28:26;94575.69;;;8.07;100.00
19457;BME280;9867;48.094;11.478;2023-03-13T06:30:52;94578.44;;;8.12;100.00
19457;BME280;9867;48.094;11.478;2023-03-13T06:33:19;94581.22;;;8.24;100.00
19457;BME280;9867;48.094;11.478;2023-03-13T06:35:46;94588.50;;;8.20;100.00
19457;BME280;9867;48.094;11.478;2023-03-13T06:38:22;94585.53;;;8.24;100.00
19457;BME280;9867;48.094;11.478;2023-03-13T06:40:49;94581.03;;;8.26;100.00
19457;BME280;9867;48.094;11.478;2023-03-13T06:43:15;94574.53;;;8.30;100.00
19457;BME280;9867;48.094;11.478;2023-03-13T06:45:42;94578.84;;;8.23;100.00
19457;BME280;9867;48.094;11.478;2023-03-13T06:48:08;94577.69;;;8.25;100.00
19457;BME280;9867;48.094;11.478;2023-03-13T06:50:37;94575.31;;;8.17;100.00
19457;BME280;9867;48.094;11.478;2023-03-13T06:53:04;94573.72;;;8.09;100.00
19457;BME280;9867;48.094;11.478;2023-03-13T06:55:31;94575.69;;;8.07;100.00
19457;BME280;9867;48.094;11.478;2023-03-13T06:57:57;94578.63;;;8.04;100.00
19457;BME280;9867;48.094;11.478;2023-03-13T07:00:27;94580.59;;;8.02;100.00
19457;BME280;9867;48.094;11.478;2023-03-13T07:02:53;94579.44;;;8.18;100.00
19457;BME280;9867;48.094;11.478;2023-03-13T07:05:20;94583.75;;;8.17;100.00
19457;BME280;9867;48.094;11.478;2023-03-13T07:07:46;94580.63;;;8.15;100.00
19457;BME280;9867;48.094;11.478;2023-03-13T07:10:13;94581.19;;;8.11;100.00
19457;BME280;9867;48.094;11.478;2023-03-13T07:12:40;94586.34;;;8.24;100.00
19457;BME280;9867;48.094;11.478;2023-03-13T07:15:07;94587.72;;;8.33;100.00
19457;BME280;9867;48.094;11.478;2023-03-13T07:17:33;94583.81;;;8.37;100.00
19457;BME280;9867;48.094;11.478;2023-03-13T07:20:00;94562.56;;;8.37;100.00
19457;BME280;9867;48.094;11.478;2023-03-13T07:22:26;94572.41;;;8.60;100.00
19457;BME280;9867;48.094;11.478;2023-03-13T07:24:53;94567.66;;;8.57;100.00
19457;BME280;9867;48.094;11.478;2023-03-13T07:27:20;94560.00;;;8.70;100.00
19457;BME280;9867;48.094;11.478;2023-03-13T07:29:47;94570.22;;;8.76;100.00
19457;BME280;9867;48.094;11.478;2023-03-13T07:32:14;94558.22;;;8.77;100.00
19457;BME280;9867;48.094;11.478;2023-03-13T07:34:40;94559.97;;;8.83;100.00
19457;BME280;9867;48.094;11.478;2023-03-13T07:37:09;94560.38;;;8.86;100.00
19457;BME280;9867;48.094;11.478;2023-03-13T07:39:36;94549.00;;;9.34;100.00
19457;BME280;9867;48.094;11.478;2023-03-13T07:42:05;94543.97;;;10.28;100.00
19457;BME280;9867;48.094;11.478;2023-03-13T07:44:33;94541.78;;;10.56;100.00
19457;BME280;9867;48.094;11.478;2023-03-13T07:47:00;94547.38;;;10.47;100.00
19457;BME280;9867;48.094;11.478;2023-03-13T07:49:26;94548.75;;;10.18;100.00
19457;BME280;9867;48.094;11.478;2023-03-13T07:51:53;94551.25;;;10.31;100.00
19457;BME280;9867;48.094;11.478;2023-03-13T07:54:19;94557.63;;;10.47;100.00
19457;BME280;9867;48.094;11.478;2023-03-13T07:56:46;94568.78;;;10.59;100.00
19457;BME280;9867;48.094;11.478;2023-03-13T07:59:13;94572.78;;;10.73;100.00
19457;BME280;9867;48.094;11.478;2023-03-13T08:01:40;94566.94;;;11.09;100.00
19457;BME280;9867;48.094;11.478;2023-03-13T08:04:09;94562.00;;;11.26;100.00
19457;BME280;9867;48.094;11.478;2023-03-13T08:06:38;94563.16;;;11.30;100.00
19457;BME280;9867;48.094;11.478;2023-03-13T08:09:05;94571.72;;;11.06;100.00
19457;BME280;9867;48.094;11.478;2023-03-13T08:11:32;94559.47;;;11.08;100.00
19457;BME280;9867;48.094;11.478;2023-03-13T08:13:59;94563.06;;;11.37;100.00
19457;BME280;9867;48.094;11.478;2023-03-13T08:16:27;94555.38;;;11.18;100.00
19457;BME280;9867;48.094;11.478;2023-03-13T08:18:55;94550.31;;;11.12;100.00
19457;BME280;9867;48.094;11.478;2023-03-13T08:21:24;94543.28;;;11.07;100.00
19457;BME280;9867;48.094;11.478;2023-03-13T08:23:52;94541.13;;;11.04;100.00
19457;BME280;9867;48.094;11.478;2023-03-13T08:26:20;94543.19;;;11.14;100.00
19457;BME280;9867;48.094;11.478;2023-03-13T08:28:52;94548.31;;;11.32;100.00
19457;BME280;9867;48.094;11.478;2023-03-13T08:31:21;94565.38;;;11.08;100.00
19457;BME280;9867;48.094;11.478;2023-03-13T08:33:48;94563.13;;;11.12;100.00
19457;BME280;9867;48.094;11.478;2023-03-13T08:36:17;94570.84;;;11.12;100.00
19457;BME280;9867;48.094;11.478;2023-03-13T08:38:45;94568.09;;;10.70;100.00
19457;BME280;9867;48.094;11.478;2023-03-13T08:41:14;94564.91;;;10.50;100.00
19457;BME280;9867;48.094;11.478;2023-03-13T08:43:40;94567.44;;;10.56;100.00
19457;BME280;9867;48.094;11.478;2023-03-13T08:46:07;94558.22;;;10.49;100.00
19457;BME280;9867;48.094;11.478;2023-03-13T08:48:34;94553.66;;;10.51;100.00
19457;BME280;9867;48.094;11.478;2023-03-13T08:51:01;94551.41;;;10.61;100.00
19457;BME280;9867;48.094;11.478;2023-03-13T08:53:29;94546.81;;;10.63;100.00
19457;BME280;9867;48.094;11.478;2023-03-13T08:55:55;94560.88;;;10.61;100.00
19457;BME280;9867;48.094;11.478;2023-03-13T08:58:22;94547.78;;;10.69;100.00
19457;BME280;9867;48.094;11.478;2023-03-13T09:00:49;94551.72;;;10.89;100.00
19457;BME280;9867;48.094;11.478;2023-03-13T09:03:15;94552.81;;;11.00;100.00
19457;BME280;9867;48.094;11.478;2023-03-13T09:05:43;94545.53;;;11.34;100.00
19457;BME280;9867;48.094;11.478;2023-03-13T09:08:22;94534.06;;;11.66;100.00
19457;BME280;9867;48.094;11.478;2023-03-13T09:10:54;94528.34;;;11.82;100.00
19457;BME280;9867;48.094;11.478;2023-03-13T09:13:20;94534.47;;;11.81;100.00
19457;BME280;9867;48.094;11.478;2023-03-13T09:15:53;94534.94;;;11.78;100.00
19457;BME280;9867;48.094;11.478;2023-03-13T09:18:19;94537.63;;;11.83;100.00
19457;BME280;9867;48.094;11.478;2023-03-13T09:20:46;94539.44;;;11.94;100.00
19457;BME280;9867;48.094;11.478;2023-03-13T09:23:14;94520.97;;;11.86;100.00
19457;BME280;9867;48.094;11.478;2023-03-13T09:25:41;94527.72;;;11.99;100.00
19457;BME280;9867;48.094;11.478;2023-03-13T09:28:08;94534.38;;;12.18;100.00
19457;BME280;9867;48.094;11.478;2023-03-13T09:30:35;94515.06;;;12.50;100.00
19457;BME280;9867;48.094;11.478;2023-03-13T09:33:01;94513.94;;;12.81;100.00
19457;BME280;9867;48.094;11.478;2023-03-13T09:35:31;94523.34;;;12.99;100.00
19457;BME280;9867;48.094;11.478;2023-03-13T09:37:57;94509.88;;;13.09;100.00
19457;BME280;9867;48.094;11.478;2023-03-13T09:40:25;94506.44;;;12.80;99.83
19457;BME280;9867;48.094;11.478;2023-03-13T09:42:55;94503.84;;;12.80;100.00
19457;BME280;9867;48.094;11.478;2023-03-13T09:45:28;94513.13;;;13.04;100.00
19457;BME280;9867;48.094;11.478;2023-03-13T09:48:01;94501.56;;;13.30;88.54
19457;BME280;9867;48.094;11.478;2023-03-13T09:50:33;94497.88;;;13.54;79.88
19457;BME280;9867;48.094;11.478;2023-03-13T09:53:05;94513.84;;;13.96;77.87
19457;BME280;9867;48.094;11.478;2023-03-13T09:55:37;94500.19;;;14.13;72.26
19457;BME280;9867;48.094;11.478;2023-03-13T09:58:11;94492.38;;;14.41;68.21
19457;BME280;9867;48.094;11.478;2023-03-13T10:00:42;94489.63;;;14.64;66.87
19457;BME280;9867;48.094;11.478;2023-03-13T10:03:13;94494.91;;;14.91;65.81
19457;BME280;9867;48.094;11.478;2023-03-13T10:05:46;94490.09;;;14.78;65.16
19457;BME280;9867;48.094;11.478;2023-03-13T10:08:15;94493.22;;;15.02;65.53
19457;BME280;9867;48.094;11.478;2023-03-13T10:10:44;94484.34;;;15.15;63.04
19457;BME280;9867;48.094;11.478;2023-03-13T10:13:19;94473.59;;;15.23;61.60
19457;BME280;9867;48.094;11.478;2023-03-13T10:15:50;94473.81;;;15.21;61.55
19457;BME280;9867;48.094;11.478;2023-03-13T10:18:21;94466.53;;;15.40;63.96
19457;BME280;9867;48.094;11.478;2023-03-13T10:20:49;94468.78;;;15.31;61.32
19457;BME280;9867;48.094;11.478;2023-03-13T10:23:20;94462.16;;;15.19;62.19
19457;BME280;9867;48.094;11.478;2023-03-13T10:25:47;94466.56;;;15.18;62.34
19457;BME280;9867;48.094;11.478;2023-03-13T10:28:15;94467.25;;;15.35;61.89
19457;BME280;9867;48.094;11.478;2023-03-13T10:30:46;94471.22;;;15.65;59.83
19457;BME280;9867;48.094;11.478;2023-03-13T10:33:25;94479.03;;;15.97;59.48
19457;BME280;9867;48.094;11.478;2023-03-13T10:36:07;94472.41;;;15.84;58.71
19457;BME280;9867;48.094;11.478;2023-03-13T10:38:43;94459.16;;;16.02;59.02
19457;BME280;9867;48.094;11.478;2023-03-13T10:41:19;94451.22;;;16.14;57.68
19457;BME280;9867;48.094;11.478;2023-03-13T10:43:50;94451.88;;;15.99;57.57
19457;BME280;9867;48.094;11.478;2023-03-13T10:46:23;94451.72;;;15.84;58.81
19457;BME280;9867;48.094;11.478;2023-03-13T10:48:53;94443.97;;;15.84;58.17
19457;BME280;9867;48.094;11.478;2023-03-13T10:51:21;94432.00;;;15.73;58.23
19457;BME280;9867;48.094;11.478;2023-03-13T10:53:48;94433.91;;;15.88;58.88
19457;BME280;9867;48.094;11.478;2023-03-13T10:56:23;94427.09;;;16.09;59.50
19457;BME280;9867;48.094;11.478;2023-03-13T10:58:51;94428.78;;;16.25;58.00
19457;BME280;9867;48.094;11.478;2023-03-13T11:01:20;94445.34;;;16.24;58.45
19457;BME280;9867;48.094;11.478;2023-03-13T11:03:49;94436.50;;;16.20;56.31
19457;BME280;9867;48.094;11.478;2023-03-13T11:06:28;94427.56;;;16.37;57.36
19457;BME280;9867;48.094;11.478;2023-03-13T11:09:03;94429.16;;;16.44;57.95
19457;BME280;9867;48.094;11.478;2023-03-13T11:11:42;94414.97;;;16.51;56.03
19457;BME280;9867;48.094;11.478;2023-03-13T11:14:14;94423.16;;;16.80;56.94
19457;BME280;9867;48.094;11.478;2023-03-13T11:16:45;94412.13;;;17.10;56.53
19457;BME280;9867;48.094;11.478;2023-03-13T11:19:44;94410.22;;;16.85;55.78
19457;BME280;9867;48.094;11.478;2023-03-13T11:22:39;94418.22;;;16.79;57.79
19457;BME280;9867;48.094;11.478;2023-03-13T11:25:17;94406.41;;;17.03;58.06
19457;BME280;9867;48.094;11.478;2023-03-13T11:27:52;94405.41;;;17.14;64.02
19457;BME280;9867;48.094;11.478;2023-03-13T11:30:32;94401.00;;;17.25;66.48
19457;BME280;9867;48.094;11.478;2023-03-13T11:33:18;94403.91;;;17.23;67.05
19457;BME280;9867;48.094;11.478;2023-03-13T11:35:49;94405.72;;;17.23;68.88
19457;BME280;9867;48.094;11.478;2023-03-13T11:38:26;94390.91;;;17.18;78.55
19457;BME280;9867;48.094;11.478;2023-03-13T11:41:04;94385.94;;;17.07;79.30
19457;BME280;9867;48.094;11.478;2023-03-13T11:46:27;94371.38;;;16.90;90.80
19457;BME280;9867;48.094;11.478;2023-03-13T11:49:12;94390.13;;;17.13;88.33
19457;BME280;9867;48.094;11.478;2023-03-13T11:51:50;94377.13;;;17.08;87.35
19457;BME280;9867;48.094;11.478;2023-03-13T11:54:39;94398.72;;;17.23;87.29
19457;BME280;9867;48.094;11.478;2023-03-13T11:57:12;94362.41;;;17.18;86.20
19457;BME280;9867;48.094;11.478;2023-03-13T11:59:46;94372.78;;;17.23;85.85
19457;BME280;9867;48.094;11.478;2023-03-13T12:02:22;94386.06;;;17.47;92.20
19457;BME280;9867;48.094;11.478;2023-03-13T12:04:54;94357.72;;;17.25;82.86
19457;BME280;9867;48.094;11.478;2023-03-13T12:07:26;94372.22;;;17.11;86.67
19457;BME280;9867;48.094;11.478;2023-03-13T12:09:58;94368.06;;;17.00;84.99
19457;BME280;9867;48.094;11.478;2023-03-13T12:12:34;94350.97;;;17.24;84.18
19457;BME280;9867;48.094;11.478;2023-03-13T12:15:15;94364.22;;;17.28;86.01
19457;BME280;9867;48.094;11.478;2023-03-13T12:17:48;94329.47;;;17.29;81.96
19457;BME280;9867;48.094;11.478;2023-03-13T12:20:21;94346.09;;;17.33;83.86
19457;BME280;9867;48.094;11.478;2023-03-13T12:22:59;94352.53;;;17.15;82.41
19457;BME280;9867;48.094;11.478;2023-03-13T12:25:33;94345.78;;;17.24;83.11
19457;BME280;9867;48.094;11.478;2023-03-13T12:28:14;94353.56;;;17.14;86.02
19457;BME280;9867;48.094;11.478;2023-03-13T12:30:47;94333.63;;;17.30;82.72
19457;BME280;9867;48.094;11.478;2023-03-13T12:33:20;94321.19;;;17.37;82.25
19457;BME280;9867;48.094;11.478;2023-03-13T12:35:53;94314.47;;;17.36;86.67
19457;BME280;9867;48.094;11.478;2023-03-13T12:38:27;94321.97;;;17.53;76.90
19457;BME280;9867;48.094;11.478;2023-03-13T12:41:07;94310.84;;;17.78;76.09
19457;BME280;9867;48.094;11.478;2023-03-13T12:43:38;94320.16;;;17.53;76.89
19457;BME280;9867;48.094;11.478;2023-03-13T12:46:26;94311.34;;;17.39;75.88
19457;BME280;9867;48.094;11.478;2023-03-13T12:49:27;94311.88;;;17.56;74.67
19457;BME280;9867;48.094;11.478;2023-03-13T12:52:19;94314.50;;;17.66;75.79
19457;BME280;9867;48.094;11.478;2023-03-13T12:55:01;94282.31;;;17.37;76.08
19457;BME280;9867;48.094;11.478;2023-03-13T12:58:00;94272.72;;;17.48;83.68
19457;BME280;9867;48.094;11.478;2023-03-13T13:00:34;94274.81;;;17.71;78.16
19457;BME280;9867;48.094;11.478;2023-03-13T13:03:07;94263.88;;;17.84;75.38
19457;BME280;9867;48.094;11.478;2023-03-13T13:05:35;94270.06;;;17.98;75.31
19457;BME280;9867;48.094;11.478;2023-03-13T13:08:02;94255.00;;;17.95;74.06
19457;BME280;9867;48.094;11.478;2023-03-13T13:10:29;94262.75;;;18.16;76.59
19457;BME280;9867;48.094;11.478;2023-03-13T13:13:27;94263.00;;;18.19;81.78
19457;BME280;9867;48.094;11.478;2023-03-13T13:15:59;94249.97;;;18.29;75.86
19457;BME280;9867;48.094;11.478;2023-03-13T13:18:28;94245.44;;;18.55;71.54
19457;BME280;9867;48.094;11.478;2023-03-13T13:21:25;94235.19;;;18.30;71.12
19457;BME280;9867;48.094;11.478;2023-03-13T13:23:52;94236.47;;;18.37;73.40
19457;BME280;9867;48.094;11.478;2023-03-13T13:26:46;94244.75;;;18.39;71.69